Time;durP1;ratioP1;P1;durP2;ratioP2;P2;SDS_P1;SDS_P2;PMS_P1;PMS_P2;Temp;Humidity;BMP_temperature;BMP_pressure;BME280_temperature;BME280_humidity;BME280_pressure;Samples;Min_cycle;Max_cycle;Signal;HPM_P1;HPM_P2
2022/11/28 00:01:38;;;;;;;;;;;;;;;7.45;56.18;95343.41;5110297;28;20059;-63
2022/11/28 00:04:04;;;;;;;;;;;;;;;7.39;56.13;95333.94;5110575;28;20015;-63
2022/11/28 00:06:30;;;;;;;;;;;;;;;7.42;56.23;95330.72;5088918;28;20017;-63
2022/11/28 00:08:56;;;;;;;;;;;;;;;7.38;55.85;95330.50;5071751;28;20834;-63
2022/11/28 00:11:21;;;;;;;;;;;;;;;7.40;56.35;95332.88;5090031;28;20158;-63
2022/11/28 00:13:47;;;;;;;;;;;;;;;7.39;56.60;95324.13;5072044;28;20111;-63
2022/11/28 00:16:13;;;;;;;;;;;;;;;7.38;56.43;95327.06;5089736;28;20100;-63
2022/11/28 00:18:38;;;;;;;;;;;;;;;7.35;56.45;95328.41;5090040;28;20016;-63
2022/11/28 00:21:05;;;;;;;;;;;;;;;7.37;55.87;95331.56;5073305;28;20017;-63
2022/11/28 00:23:31;;;;;;;;;;;;;;;7.40;56.57;95332.88;5110209;28;20715;-63
2022/11/28 00:25:57;;;;;;;;;;;;;;;7.35;56.69;95323.09;5091544;28;20032;-62
2022/11/28 00:28:23;;;;;;;;;;;;;;;7.39;56.02;95323.34;5110443;28;20008;-62
2022/11/28 00:30:48;;;;;;;;;;;;;;;7.43;56.12;95334.97;5092108;28;20012;-63
2022/11/28 00:33:13;;;;;;;;;;;;;;;7.33;56.18;95343.00;5107701;28;20017;-62
2022/11/28 00:35:38;;;;;;;;;;;;;;;7.36;56.53;95337.13;5093684;28;20039;-63
2022/11/28 00:38:04;;;;;;;;;;;;;;;7.39;56.66;95332.06;5091294;28;20038;-63
2022/11/28 00:40:29;;;;;;;;;;;;;;;7.46;56.16;95326.44;5108742;28;20025;-63
2022/11/28 00:42:54;;;;;;;;;;;;;;;7.42;56.64;95323.59;5110049;28;20008;-63
2022/11/28 00:45:19;;;;;;;;;;;;;;;7.45;56.02;95323.00;5091418;28;20022;-63
2022/11/28 00:47:47;;;;;;;;;;;;;;;7.41;56.06;95314.06;5105857;28;20044;-63
2022/11/28 00:50:12;;;;;;;;;;;;;;;7.42;55.93;95306.91;5107503;28;20019;-63
2022/11/28 00:52:37;;;;;;;;;;;;;;;7.42;55.78;95305.06;5109751;28;20107;-62
2022/11/28 00:55:02;;;;;;;;;;;;;;;7.40;56.02;95301.09;5109573;28;20095;-63
2022/11/28 00:57:28;;;;;;;;;;;;;;;7.39;55.92;95297.66;5109611;28;20083;-63
2022/11/28 00:59:53;;;;;;;;;;;;;;;7.36;56.15;95286.84;5091901;28;20013;-63
2022/11/28 01:02:18;;;;;;;;;;;;;;;7.23;56.45;95291.75;5084507;28;20521;-63
2022/11/28 01:04:43;;;;;;;;;;;;;;;7.20;56.26;95296.78;5071451;28;20017;-65
2022/11/28 01:07:08;;;;;;;;;;;;;;;7.12;56.78;95278.88;5088233;28;20016;-64
2022/11/28 01:09:34;;;;;;;;;;;;;;;7.07;57.13;95273.63;5110152;28;20017;-63
2022/11/28 01:11:59;;;;;;;;;;;;;;;7.11;56.73;95286.00;5109819;28;20518;-64
2022/11/28 01:14:24;;;;;;;;;;;;;;;7.11;57.12;95274.63;5089092;28;20540;-64
2022/11/28 01:16:50;;;;;;;;;;;;;;;7.12;56.46;95282.31;5074376;28;20358;-64
2022/11/28 01:19:15;;;;;;;;;;;;;;;7.08;57.03;95281.28;5093333;28;20016;-63
2022/11/28 01:21:41;;;;;;;;;;;;;;;6.43;57.65;95280.69;5095955;28;20104;-64
2022/11/28 01:24:06;;;;;;;;;;;;;;;6.82;57.59;95282.56;5113504;28;20483;-64
2022/11/28 01:26:31;;;;;;;;;;;;;;;6.84;57.76;95286.50;5094564;28;20077;-63
2022/11/28 01:28:58;;;;;;;;;;;;;;;6.81;57.75;95276.50;5106126;28;20044;-64
2022/11/28 01:31:24;;;;;;;;;;;;;;;6.94;57.59;95286.41;5074966;28;20095;-64
2022/11/28 01:33:49;;;;;;;;;;;;;;;7.01;57.20;95286.09;5092830;28;20104;-64
2022/11/28 01:36:15;;;;;;;;;;;;;;;7.10;57.67;95281.78;5074309;28;20107;-63
2022/11/28 01:38:40;;;;;;;;;;;;;;;7.16;56.91;95275.38;5092930;28;20013;-64
2022/11/28 01:41:06;;;;;;;;;;;;;;;7.14;57.36;95266.94;5092570;28;20579;-64
2022/11/28 01:43:31;;;;;;;;;;;;;;;7.13;56.83;95269.88;5103583;28;20017;-64
2022/11/28 01:45:57;;;;;;;;;;;;;;;7.23;56.92;95262.63;5112738;28;20012;-63
2022/11/28 01:48:27;;;;;;;;;;;;;;;7.25;56.91;95255.19;5094965;28;20057;-63
2022/11/28 01:50:55;;;;;;;;;;;;;;;7.19;56.75;95242.31;5113022;28;20049;-64
2022/11/28 01:53:20;;;;;;;;;;;;;;;7.11;56.41;95238.41;5111725;28;20012;-63
2022/11/28 01:55:58;;;;;;;;;;;;;;;7.08;56.47;95244.25;5088512;28;20530;-64
2022/11/28 01:58:24;;;;;;;;;;;;;;;6.99;57.32;95265.22;5072977;28;20019;-63
2022/11/28 02:00:49;;;;;;;;;;;;;;;4.57;64.01;95309.59;5094319;28;20065;-63
2022/11/28 02:03:21;;;;;;;;;;;;;;;4.52;65.68;95306.16;5112834;28;20474;-64
2022/11/28 02:05:48;;;;;;;;;;;;;;;5.74;62.62;95300.81;5112583;28;20013;-63
2022/11/28 02:08:14;;;;;;;;;;;;;;;6.25;61.31;95293.50;5102117;28;20012;-63
2022/11/28 02:10:39;;;;;;;;;;;;;;;6.59;60.14;95278.75;5073954;28;20381;-63
2022/11/28 02:13:13;;;;;;;;;;;;;;;6.88;59.19;95276.94;5092222;28;20009;-63
2022/11/28 02:16:10;;;;;;;;;;;;;;;7.10;58.88;95278.34;5091950;28;20013;-63
2022/11/28 02:18:36;;;;;;;;;;;;;;;7.26;57.60;95274.50;5057991;28;20013;-63
2022/11/28 02:21:01;;;;;;;;;;;;;;;7.37;57.56;95265.41;5073980;28;20078;-63
2022/11/28 02:23:38;;;;;;;;;;;;;;;7.47;56.51;95262.66;5091515;28;20024;-63
2022/11/28 02:26:11;;;;;;;;;;;;;;;7.47;56.38;95262.66;5073399;28;20024;-63
2022/11/28 02:28:36;;;;;;;;;;;;;;;7.55;55.95;95253.31;5074132;28;20657;-63
2022/11/28 02:31:07;;;;;;;;;;;;;;;7.54;55.91;95259.69;5091849;28;20016;-63
2022/11/28 02:33:34;;;;;;;;;;;;;;;7.63;56.12;95258.00;5073676;28;20040;-63
2022/11/28 02:36:08;;;;;;;;;;;;;;;7.66;55.68;95254.78;5091051;28;20017;-63
2022/11/28 02:38:36;;;;;;;;;;;;;;;7.58;55.47;95241.38;5073782;28;20013;-63
2022/11/28 02:41:01;;;;;;;;;;;;;;;7.64;55.39;95235.75;5073434;28;20016;-63
2022/11/28 02:43:27;;;;;;;;;;;;;;;7.65;55.75;95236.53;5091772;28;20396;-64
2022/11/28 02:46:11;;;;;;;;;;;;;;;7.67;55.56;95229.88;5091161;28;20388;-63
2022/11/28 02:48:40;;;;;;;;;;;;;;;7.61;55.32;95222.28;5073652;28;20017;-63
2022/11/28 02:51:09;;;;;;;;;;;;;;;7.60;55.59;95218.84;5102939;28;20021;-63
2022/11/28 02:53:36;;;;;;;;;;;;;;;7.56;55.31;95223.13;5111777;28;20062;-63
2022/11/28 02:56:01;;;;;;;;;;;;;;;7.50;55.62;95208.38;5093109;28;20115;-63
2022/11/28 02:58:26;;;;;;;;;;;;;;;7.52;55.33;95222.91;5095906;28;20112;-63
2022/11/28 03:00:52;;;;;;;;;;;;;;;7.48;55.86;95215.81;5091175;28;20461;-63
2022/11/28 03:03:20;;;;;;;;;;;;;;;7.45;55.92;95211.06;5073184;28;20063;-63
2022/11/28 03:05:45;;;;;;;;;;;;;;;7.44;55.87;95220.09;5090291;28;20027;-64
2022/11/28 03:08:13;;;;;;;;;;;;;;;7.41;56.38;95218.78;5091229;28;20012;-63
2022/11/28 03:10:57;;;;;;;;;;;;;;;7.39;56.43;95222.78;5073094;28;20052;-63
2022/11/28 03:13:31;;;;;;;;;;;;;;;7.32;56.37;95220.50;5091038;28;20411;-63
2022/11/28 03:16:05;;;;;;;;;;;;;;;7.33;56.12;95216.78;5072561;28;20379;-63
2022/11/28 03:18:36;;;;;;;;;;;;;;;7.27;56.61;95210.75;5094927;28;20111;-63
2022/11/28 03:21:10;;;;;;;;;;;;;;;7.30;56.27;95214.66;5092853;28;20024;-63
2022/11/28 03:23:40;;;;;;;;;;;;;;;7.28;56.09;95209.66;5111257;28;20019;-63
2022/11/28 03:26:08;;;;;;;;;;;;;;;7.27;56.80;95199.38;5110663;28;20361;-63
2022/11/28 03:28:36;;;;;;;;;;;;;;;7.26;56.42;95193.28;5092947;28;20484;-63
2022/11/28 03:31:15;;;;;;;;;;;;;;;7.24;56.73;95186.69;5092633;28;20492;-63
2022/11/28 03:33:47;;;;;;;;;;;;;;;7.24;56.24;95184.06;5110012;28;20028;-64
2022/11/28 03:36:18;;;;;;;;;;;;;;;7.18;56.57;95179.88;5110057;28;20051;-63
2022/11/28 03:38:46;;;;;;;;;;;;;;;7.14;56.65;95184.94;5110983;28;20030;-64
2022/11/28 03:41:21;;;;;;;;;;;;;;;7.16;56.90;95180.16;5110862;28;20066;-64
2022/11/28 03:43:51;;;;;;;;;;;;;;;7.13;56.93;95183.38;5110665;28;20078;-62
2022/11/28 03:46:20;;;;;;;;;;;;;;;7.14;57.01;95171.72;5090782;28;20016;-62
2022/11/28 03:48:46;;;;;;;;;;;;;;;7.11;56.95;95164.34;5092129;28;20017;-62
2022/11/28 03:51:17;;;;;;;;;;;;;;;7.18;56.83;95151.56;5110797;28;20054;-63
2022/11/28 03:53:45;;;;;;;;;;;;;;;7.23;56.18;95159.47;5109615;28;20469;-64
2022/11/28 03:56:13;;;;;;;;;;;;;;;7.27;55.93;95162.34;5109551;28;20004;-64
2022/11/28 03:58:50;;;;;;;;;;;;;;;7.36;56.35;95173.06;5110653;28;20085;-63
2022/11/28 04:01:26;;;;;;;;;;;;;;;7.40;56.42;95168.78;5091173;28;20363;-62
2022/11/28 04:04:01;;;;;;;;;;;;;;;7.48;56.18;95174.25;5110248;28;20050;-62
2022/11/28 04:06:33;;;;;;;;;;;;;;;7.57;56.13;95166.44;5091461;28;20056;-62
2022/11/28 04:09:02;;;;;;;;;;;;;;;7.58;55.97;95148.75;5090923;28;20036;-62
2022/11/28 04:11:32;;;;;;;;;;;;;;;7.63;55.52;95151.31;5092284;28;20013;-61
2022/11/28 04:14:10;;;;;;;;;;;;;;;7.62;55.69;95147.88;5092305;28;20039;-61
2022/11/28 04:16:48;;;;;;;;;;;;;;;7.34;55.79;95157.47;5093090;28;20107;-61
2022/11/28 04:19:32;;;;;;;;;;;;;;;7.56;55.50;95149.78;5071964;28;20035;-60
2022/11/28 04:21:57;;;;;;;;;;;;;;;7.60;55.66;95149.22;5090145;28;20050;-60
2022/11/28 04:24:24;;;;;;;;;;;;;;;7.69;55.68;95145.66;5090010;28;20430;-61
2022/11/28 04:26:57;;;;;;;;;;;;;;;7.73;55.52;95144.03;5071085;28;20025;-62
2022/11/28 04:29:23;;;;;;;;;;;;;;;7.84;55.55;95138.59;5071450;28;20016;-61
2022/11/28 04:31:50;;;;;;;;;;;;;;;7.78;55.45;95128.06;5090015;28;20017;-61
2022/11/28 04:34:17;;;;;;;;;;;;;;;7.78;55.13;95137.88;5071612;28;20012;-61
2022/11/28 04:36:44;;;;;;;;;;;;;;;7.88;55.00;95148.31;5089331;28;20009;-63
2022/11/28 04:39:13;;;;;;;;;;;;;;;7.83;55.11;95143.13;5089829;28;20016;-61
2022/11/28 04:41:41;;;;;;;;;;;;;;;7.86;55.16;95149.69;5071690;28;20035;-61
2022/11/28 04:44:11;;;;;;;;;;;;;;;7.89;55.09;95141.97;5079485;28;20053;-62
2022/11/28 04:46:42;;;;;;;;;;;;;;;7.92;54.95;95145.88;5091508;28;20017;-61
2022/11/28 04:49:07;;;;;;;;;;;;;;;7.84;54.54;95128.00;5113711;28;20013;-61
2022/11/28 04:51:51;;;;;;;;;;;;;;;7.85;54.94;95138.31;5114214;28;20091;-62
2022/11/28 04:54:19;;;;;;;;;;;;;;;7.83;54.87;95129.88;5114290;28;20469;-61
2022/11/28 04:57:00;;;;;;;;;;;;;;;7.82;54.99;95130.91;5095155;28;20367;-62
2022/11/28 04:59:26;;;;;;;;;;;;;;;7.79;54.71;95099.75;5097175;28;20065;-61
2022/11/28 05:01:52;;;;;;;;;;;;;;;7.67;55.03;95088.78;5093559;28;20016;-61
2022/11/28 05:04:18;;;;;;;;;;;;;;;7.45;54.97;95106.00;5093433;28;20013;-61
2022/11/28 05:06:43;;;;;;;;;;;;;;;5.16;61.26;95165.91;5092699;28;20023;-62
2022/11/28 05:09:09;;;;;;;;;;;;;;;4.32;66.08;95167.34;5093405;28;20031;-61
2022/11/28 05:11:34;;;;;;;;;;;;;;;4.77;64.71;95174.44;5099361;28;20017;-61
2022/11/28 05:13:59;;;;;;;;;;;;;;;4.11;67.20;95191.03;5077467;28;20024;-60
2022/11/28 05:16:25;;;;;;;;;;;;;;;4.50;66.36;95198.41;5092998;28;20016;-61
2022/11/28 05:18:50;;;;;;;;;;;;;;;4.72;65.67;95178.94;5075037;28;20106;-61
2022/11/28 05:21:15;;;;;;;;;;;;;;;4.02;68.08;95192.59;5100560;28;20543;-61
2022/11/28 05:23:42;;;;;;;;;;;;;;;4.69;66.04;95201.31;5113658;28;20008;-61
2022/11/28 05:26:08;;;;;;;;;;;;;;;3.92;68.98;95203.09;5092870;28;20031;-61
2022/11/28 05:28:34;;;;;;;;;;;;;;;4.67;66.08;95188.41;5093174;28;20047;-61
2022/11/28 05:31:00;;;;;;;;;;;;;;;4.13;68.08;95204.72;5074691;28;20450;-60
2022/11/28 05:33:25;;;;;;;;;;;;;;;4.72;67.01;95200.00;5093091;28;20013;-61
2022/11/28 05:35:50;;;;;;;;;;;;;;;4.69;66.40;95188.13;5092674;28;20019;-61
2022/11/28 05:38:15;;;;;;;;;;;;;;;4.24;67.46;95200.25;5075330;28;20017;-61
2022/11/28 05:40:43;;;;;;;;;;;;;;;4.94;66.54;95188.09;5077633;28;20012;-61
2022/11/28 05:43:08;;;;;;;;;;;;;;;5.43;64.00;95194.56;5113169;28;20012;-61
2022/11/28 05:45:34;;;;;;;;;;;;;;;4.63;66.49;95195.25;5094413;28;20481;-61
2022/11/28 05:47:59;;;;;;;;;;;;;;;5.71;63.57;95188.63;5113003;28;20012;-61
2022/11/28 05:50:24;;;;;;;;;;;;;;;5.53;63.69;95184.00;5095025;28;20499;-62
2022/11/28 05:52:49;;;;;;;;;;;;;;;5.53;62.89;95160.25;5094753;28;20013;-62
2022/11/28 05:55:14;;;;;;;;;;;;;;;5.34;63.52;95169.81;5093323;28;20111;-61
2022/11/28 05:57:40;;;;;;;;;;;;;;;5.98;62.52;95139.94;5113092;28;20012;-62
2022/11/28 06:00:05;;;;;;;;;;;;;;;6.40;61.29;95149.94;5094306;28;20095;-62
2022/11/28 06:02:30;;;;;;;;;;;;;;;5.74;62.22;95164.34;5113037;28;20168;-61
2022/11/28 06:04:56;;;;;;;;;;;;;;;6.44;61.07;95135.09;5112405;28;20009;-62
2022/11/28 06:07:21;;;;;;;;;;;;;;;6.41;60.86;95146.22;5112413;28;20431;-62
2022/11/28 06:09:46;;;;;;;;;;;;;;;5.99;61.00;95139.69;5093682;28;20013;-62
2022/11/28 06:12:11;;;;;;;;;;;;;;;6.57;60.27;95111.75;5094317;28;20414;-61
2022/11/28 06:14:36;;;;;;;;;;;;;;;6.79;59.58;95122.63;5112865;28;20035;-61
2022/11/28 06:17:02;;;;;;;;;;;;;;;6.65;59.66;95148.13;5111861;28;20103;-62
2022/11/28 06:19:27;;;;;;;;;;;;;;;7.06;59.76;95139.78;5094339;28;20021;-61
2022/11/28 06:21:52;;;;;;;;;;;;;;;7.28;58.95;95140.88;5112110;28;20058;-61
2022/11/28 06:24:17;;;;;;;;;;;;;;;7.47;58.07;95145.41;5082078;28;20013;-61
2022/11/28 06:26:42;;;;;;;;;;;;;;;7.55;57.71;95142.13;5072969;28;20140;-63
2022/11/28 06:29:08;;;;;;;;;;;;;;;7.69;57.26;95140.38;5073887;28;20013;-60
2022/11/28 06:31:33;;;;;;;;;;;;;;;7.67;57.52;95131.91;5074533;28;20028;-64
2022/11/28 06:33:58;;;;;;;;;;;;;;;7.45;58.21;95121.09;5094880;28;20044;-63
2022/11/28 06:36:25;;;;;;;;;;;;;;;7.61;57.77;95121.69;5104618;28;20502;-63
2022/11/28 06:38:50;;;;;;;;;;;;;;;7.69;57.21;95132.44;5074132;28;20366;-62
2022/11/28 06:41:17;;;;;;;;;;;;;;;7.74;57.28;95129.72;5106555;28;20024;-61
2022/11/28 06:43:42;;;;;;;;;;;;;;;7.82;56.85;95122.97;5090511;28;20027;-61
2022/11/28 06:46:14;;;;;;;;;;;;;;;8.04;56.23;95125.84;5079789;28;20013;-61
2022/11/28 06:48:40;;;;;;;;;;;;;;;8.15;56.11;95120.41;5093625;28;20417;-60
2022/11/28 06:51:05;;;;;;;;;;;;;;;8.15;55.52;95113.22;5093130;28;20016;-63
2022/11/28 06:53:31;;;;;;;;;;;;;;;8.24;55.68;95116.81;5072911;28;20012;-61
2022/11/28 06:55:56;;;;;;;;;;;;;;;8.32;55.23;95118.78;5072608;28;20019;-62
2022/11/28 06:58:22;;;;;;;;;;;;;;;8.40;55.22;95127.97;5075911;28;20012;-62
2022/11/28 07:00:47;;;;;;;;;;;;;;;8.15;54.83;95137.09;5091056;28;20044;-64
2022/11/28 07:03:12;;;;;;;;;;;;;;;8.26;54.73;95127.13;5090276;28;20388;-63
2022/11/28 07:05:38;;;;;;;;;;;;;;;8.34;55.12;95110.53;5077595;28;20024;-63
2022/11/28 07:08:03;;;;;;;;;;;;;;;8.46;55.05;95107.47;5074754;28;20017;-63
2022/11/28 07:10:28;;;;;;;;;;;;;;;8.40;55.17;95116.59;5077848;28;20021;-62
2022/11/28 07:12:58;;;;;;;;;;;;;;;8.49;55.03;95109.53;5091424;28;20023;-63
2022/11/28 07:15:23;;;;;;;;;;;;;;;8.52;54.50;95106.31;5097412;28;20148;-64
2022/11/28 07:17:49;;;;;;;;;;;;;;;8.63;54.73;95113.00;5087241;28;20115;-64
2022/11/28 07:20:14;;;;;;;;;;;;;;;8.69;54.45;95114.47;5089510;28;20035;-62
2022/11/28 07:22:39;;;;;;;;;;;;;;;8.72;53.75;95119.22;5090918;28;20013;-63
2022/11/28 07:25:04;;;;;;;;;;;;;;;6.66;57.83;95145.22;5082725;28;20017;-63
2022/11/28 07:27:30;;;;;;;;;;;;;;;7.40;57.67;95152.91;5090959;28;20028;-63
2022/11/28 07:29:55;;;;;;;;;;;;;;;7.22;57.98;95147.31;5095545;28;20021;-63
2022/11/28 07:32:20;;;;;;;;;;;;;;;7.72;57.14;95146.94;5099602;28;20013;-63
2022/11/28 07:34:46;;;;;;;;;;;;;;;8.05;56.56;95134.59;5101444;28;20477;-67
2022/11/28 07:37:12;;;;;;;;;;;;;;;8.28;55.97;95128.38;5073712;28;20013;-66
2022/11/28 07:39:37;;;;;;;;;;;;;;;8.50;55.65;95129.69;5071922;28;20532;-65
2022/11/28 07:42:03;;;;;;;;;;;;;;;8.66;55.12;95123.03;5090741;28;20020;-65
2022/11/28 07:44:28;;;;;;;;;;;;;;;8.82;54.46;95118.25;5072093;28;20448;-66
2022/11/28 07:46:53;;;;;;;;;;;;;;;8.84;54.19;95108.91;5089661;28;20021;-66
2022/11/28 07:49:18;;;;;;;;;;;;;;;8.90;53.71;95099.00;5104311;28;20017;-65
2022/11/28 07:51:44;;;;;;;;;;;;;;;8.62;52.96;95105.34;5071977;28;20104;-66
2022/11/28 07:54:09;;;;;;;;;;;;;;;8.90;53.49;95108.81;5106892;28;20120;-66
2022/11/28 07:56:35;;;;;;;;;;;;;;;8.96;53.48;95105.00;5089154;28;20013;-65
2022/11/28 07:59:00;;;;;;;;;;;;;;;9.08;53.01;95098.13;5087157;28;20123;-65
2022/11/28 08:01:27;;;;;;;;;;;;;;;9.17;53.44;95094.78;5089789;28;20107;-65
2022/11/28 08:03:53;;;;;;;;;;;;;;;9.28;53.32;95090.84;5096767;28;20634;-65
2022/11/28 08:06:20;;;;;;;;;;;;;;;9.41;53.10;95094.56;5102631;27;20059;-65
2022/11/28 08:08:46;;;;;;;;;;;;;;;9.44;52.30;95093.97;5071728;28;20665;-66
2022/11/28 08:11:11;;;;;;;;;;;;;;;9.34;51.77;95098.41;5091480;28;20008;-64
2022/11/28 08:13:38;;;;;;;;;;;;;;;8.84;52.80;95108.13;5093437;28;20017;-65
2022/11/28 08:16:08;;;;;;;;;;;;;;;8.79;53.35;95111.66;5078707;27;20012;-66
2022/11/28 08:18:34;;;;;;;;;;;;;;;6.80;58.12;95120.75;5089981;28;20017;-64
2022/11/28 08:21:04;;;;;;;;;;;;;;;6.68;59.44;95118.50;5085787;28;20021;-64
2022/11/28 08:23:29;;;;;;;;;;;;;;;6.72;60.14;95122.97;5089925;28;20042;-67
2022/11/28 08:25:55;;;;;;;;;;;;;;;6.71;59.52;95121.41;5080610;28;20066;-66
2022/11/28 08:28:20;;;;;;;;;;;;;;;7.85;57.52;95106.53;5071838;28;20012;-66
2022/11/28 08:30:45;;;;;;;;;;;;;;;8.38;56.24;95116.09;5090145;28;20017;-67
2022/11/28 08:33:12;;;;;;;;;;;;;;;8.79;55.30;95100.25;5086059;28;20660;-65
2022/11/28 08:35:38;;;;;;;;;;;;;;;9.02;54.62;95098.53;5087421;28;20013;-65
2022/11/28 08:38:03;;;;;;;;;;;;;;;9.28;53.92;95104.91;5071511;28;20019;-64
2022/11/28 08:40:28;;;;;;;;;;;;;;;9.49;53.06;95092.00;5103711;28;20050;-64
2022/11/28 08:42:54;;;;;;;;;;;;;;;9.70;52.53;95097.66;5109659;28;20116;-65
2022/11/28 08:45:19;;;;;;;;;;;;;;;9.68;51.43;95110.47;5100531;28;20483;-65
2022/11/28 08:47:45;;;;;;;;;;;;;;;9.73;52.55;95091.75;5109083;28;20024;-64
2022/11/28 08:50:10;;;;;;;;;;;;;;;9.90;51.94;95094.56;5090576;28;20024;-64
2022/11/28 08:52:35;;;;;;;;;;;;;;;9.94;50.68;95107.25;5091585;28;20016;-66
2022/11/28 08:55:00;;;;;;;;;;;;;;;10.06;50.58;95110.16;5084775;28;20027;-66
2022/11/28 08:57:25;;;;;;;;;;;;;;;10.29;50.81;95109.13;5093116;28;20012;-65
2022/11/28 08:59:51;;;;;;;;;;;;;;;10.44;49.92;95115.13;5091811;28;20020;-65
2022/11/28 09:02:16;;;;;;;;;;;;;;;10.51;50.10;95113.63;5104899;28;20085;-66
2022/11/28 09:04:41;;;;;;;;;;;;;;;10.71;49.37;95108.91;5090685;28;20813;-64
2022/11/28 09:07:06;;;;;;;;;;;;;;;10.54;49.02;95105.03;5074726;28;20021;-64
2022/11/28 09:09:31;;;;;;;;;;;;;;;10.69;49.64;95101.22;5093221;28;20017;-65
2022/11/28 09:11:57;;;;;;;;;;;;;;;10.82;49.22;95102.22;5098929;28;20039;-65
2022/11/28 09:14:24;;;;;;;;;;;;;;;10.93;48.86;95106.97;5089994;28;20009;-67
2022/11/28 09:16:50;;;;;;;;;;;;;;;11.08;48.45;95113.00;5089472;28;20012;-65
2022/11/28 09:19:15;;;;;;;;;;;;;;;11.23;48.07;95112.59;5090137;28;20019;-66
2022/11/28 09:21:40;;;;;;;;;;;;;;;11.32;47.50;95121.38;5089723;28;20019;-65
2022/11/28 09:24:06;;;;;;;;;;;;;;;11.41;47.43;95114.22;5071777;28;20074;-65
2022/11/28 09:26:32;;;;;;;;;;;;;;;11.57;47.43;95119.13;5088289;28;20025;-66
2022/11/28 09:28:57;;;;;;;;;;;;;;;11.67;47.22;95113.50;5071540;28;20059;-65
2022/11/28 09:31:22;;;;;;;;;;;;;;;11.78;46.35;95114.75;5089458;28;20012;-65
2022/11/28 09:33:48;;;;;;;;;;;;;;;11.89;46.42;95124.03;5095327;28;20013;-64
2022/11/28 09:36:21;;;;;;;;;;;;;;;12.02;46.55;95122.31;5094942;28;20020;-64
2022/11/28 09:38:46;;;;;;;;;;;;;;;12.07;46.37;95118.72;5095164;28;20104;-66
2022/11/28 09:41:27;;;;;;;;;;;;;;;12.16;45.77;95122.97;5095947;28;20108;-65
2022/11/28 09:43:54;;;;;;;;;;;;;;;12.12;46.09;95114.00;5074644;28;20107;-65
2022/11/28 09:46:24;;;;;;;;;;;;;;;12.29;45.96;95118.56;5074464;28;20074;-64
2022/11/28 09:48:53;;;;;;;;;;;;;;;12.40;45.89;95119.03;5092916;28;20017;-65
2022/11/28 09:51:24;;;;;;;;;;;;;;;12.40;45.47;95108.38;5074455;28;20129;-65
2022/11/28 09:53:59;;;;;;;;;;;;;;;12.55;45.56;95109.75;5096767;28;20098;-64
2022/11/28 09:56:24;;;;;;;;;;;;;;;12.46;45.31;95115.09;5092657;28;20103;-64
2022/11/28 09:58:57;;;;;;;;;;;;;;;12.66;45.39;95111.78;5113045;28;20095;-65
2022/11/28 10:01:23;;;;;;;;;;;;;;;12.70;44.95;95118.06;5094672;28;20472;-65
2022/11/28 10:04:06;;;;;;;;;;;;;;;12.72;45.11;95115.06;5113210;28;20031;-65
2022/11/28 10:06:34;;;;;;;;;;;;;;;12.76;44.80;95107.97;5112588;28;20767;-64
2022/11/28 10:09:06;;;;;;;;;;;;;;;12.81;44.81;95101.69;5079793;28;20108;-64
2022/11/28 10:11:31;;;;;;;;;;;;;;;12.85;44.85;95097.28;5087899;28;20388;-66
2022/11/28 10:14:15;;;;;;;;;;;;;;;12.88;44.65;95094.75;5112478;28;20107;-64
2022/11/28 10:16:56;;;;;;;;;;;;;;;12.98;44.85;95093.63;5112483;28;20008;-64
2022/11/28 10:19:41;;;;;;;;;;;;;;;13.07;44.51;95096.28;5112742;28;20015;-65
2022/11/28 10:22:12;;;;;;;;;;;;;;;13.19;44.34;95096.38;5086459;28;20105;-65
2022/11/28 10:24:42;;;;;;;;;;;;;;;13.24;44.15;95098.88;5092301;28;20016;-64
2022/11/28 10:27:09;;;;;;;;;;;;;;;13.22;44.64;95091.22;5092024;28;20111;-65
2022/11/28 10:29:53;;;;;;;;;;;;;;;13.35;44.31;95094.75;5092280;28;20009;-64
2022/11/28 10:32:23;;;;;;;;;;;;;;;13.40;44.05;95099.91;5074111;28;20099;-67
2022/11/28 10:34:57;;;;;;;;;;;;;;;13.53;44.23;95098.13;5095828;28;20016;-65
2022/11/28 10:37:24;;;;;;;;;;;;;;;13.50;43.84;95101.44;5110866;28;20125;-65
2022/11/28 10:39:49;;;;;;;;;;;;;;;13.64;43.85;95093.19;5099693;28;20107;-65
2022/11/28 10:42:27;;;;;;;;;;;;;;;13.68;43.72;95086.09;5099238;28;20519;-65
2022/11/28 10:44:55;;;;;;;;;;;;;;;13.73;43.07;95092.03;5091277;28;20008;-66
2022/11/28 10:47:39;;;;;;;;;;;;;;;13.80;42.68;95094.19;5091791;28;20393;-67
2022/11/28 10:50:07;;;;;;;;;;;;;;;13.87;43.53;95089.13;5091472;28;20449;-67
2022/11/28 10:52:45;;;;;;;;;;;;;;;13.94;43.00;95089.38;5093663;28;20027;-66
2022/11/28 10:55:28;;;;;;;;;;;;;;;14.02;42.99;95085.84;5111986;28;20008;-67
2022/11/28 10:58:13;;;;;;;;;;;;;;;14.05;43.09;95085.19;5073543;28;20643;-64
2022/11/28 11:00:41;;;;;;;;;;;;;;;14.07;42.51;95084.84;5080418;28;20065;-65
2022/11/28 11:03:10;;;;;;;;;;;;;;;14.14;42.86;95079.78;5078913;28;20511;-66
2022/11/28 11:05:36;;;;;;;;;;;;;;;14.14;42.75;95081.66;5093030;28;20086;-64
2022/11/28 11:08:03;;;;;;;;;;;;;;;14.13;42.92;95075.53;5111905;28;20020;-65
2022/11/28 11:10:31;;;;;;;;;;;;;;;14.23;43.06;95072.47;5109624;28;20017;-66
2022/11/28 11:12:57;;;;;;;;;;;;;;;14.32;42.39;95080.41;5073152;28;20020;-65
2022/11/28 11:15:28;;;;;;;;;;;;;;;14.29;42.43;95083.75;5091232;28;20017;-65
2022/11/28 11:17:54;;;;;;;;;;;;;;;14.31;42.98;95084.19;5105374;28;20441;-66
2022/11/28 11:20:19;;;;;;;;;;;;;;;14.37;42.47;95085.53;5111824;28;20012;-65
2022/11/28 11:22:53;;;;;;;;;;;;;;;14.43;42.72;95084.22;5093212;28;20016;-65
2022/11/28 11:25:19;;;;;;;;;;;;;;;14.45;42.52;95087.38;5093068;28;20012;-66
2022/11/28 11:27:47;;;;;;;;;;;;;;;14.52;43.02;95081.50;5110478;28;20024;-71
2022/11/28 11:30:17;;;;;;;;;;;;;;;14.35;42.83;95077.06;5092965;28;20028;-70
2022/11/28 11:32:45;;;;;;;;;;;;;;;14.20;43.09;95075.78;5104904;28;20115;-71
2022/11/28 11:35:16;;;;;;;;;;;;;;;14.02;43.37;95079.69;5072854;28;20020;-72
2022/11/28 11:37:42;;;;;;;;;;;;;;;14.11;42.73;95076.97;5090796;28;20004;-72
2022/11/28 11:40:27;;;;;;;;;;;;;;;14.29;42.66;95079.16;5090946;28;20166;-71
2022/11/28 11:42:58;;;;;;;;;;;;;;;14.42;42.98;95071.97;5092060;28;20020;-73
2022/11/28 11:45:23;;;;;;;;;;;;;;;14.51;42.38;95067.34;5110882;28;20776;-71
2022/11/28 11:47:48;;;;;;;;;;;;;;;14.27;42.42;95070.66;5110939;28;20016;-70
2022/11/28 11:50:15;;;;;;;;;;;;;;;14.39;42.60;95069.97;5111115;28;20016;-71
2022/11/28 11:52:41;;;;;;;;;;;;;;;14.48;42.82;95062.63;5110285;28;20017;-70
2022/11/28 11:55:12;;;;;;;;;;;;;;;14.50;42.80;95065.78;5110308;28;20123;-69
2022/11/28 11:57:39;;;;;;;;;;;;;;;14.71;42.75;95057.69;5103497;28;20485;-65
2022/11/28 12:00:05;;;;;;;;;;;;;;;14.90;42.49;95059.84;5090455;28;20481;-65
2022/11/28 12:02:40;;;;;;;;;;;;;;;15.00;41.67;95056.75;5090812;28;20012;-65
2022/11/28 12:05:10;;;;;;;;;;;;;;;15.10;41.69;95052.84;5090031;28;20016;-65
2022/11/28 12:07:38;;;;;;;;;;;;;;;15.08;41.52;95055.06;5090459;28;20017;-65
2022/11/28 12:10:04;;;;;;;;;;;;;;;15.09;41.56;95054.72;5090520;28;20731;-65
2022/11/28 12:12:32;;;;;;;;;;;;;;;15.17;41.41;95057.63;5072041;28;20013;-65
2022/11/28 12:14:58;;;;;;;;;;;;;;;14.77;41.92;95048.31;5071749;28;20013;-65
2022/11/28 12:17:38;;;;;;;;;;;;;;;14.70;42.72;95047.31;5072359;28;20062;-66
2022/11/28 12:20:20;;;;;;;;;;;;;;;14.46;42.81;95048.78;5090255;28;20091;-65
2022/11/28 12:23:04;;;;;;;;;;;;;;;14.27;42.64;95049.28;5090120;28;20484;-65
2022/11/28 12:25:35;;;;;;;;;;;;;;;14.27;42.95;95049.28;5074499;28;20099;-65
2022/11/28 12:28:00;;;;;;;;;;;;;;;13.40;44.54;95059.06;5090614;28;20571;-64
2022/11/28 12:30:47;;;;;;;;;;;;;;;13.19;45.43;95067.78;5092192;28;20095;-65
2022/11/28 12:33:31;;;;;;;;;;;;;;;13.27;45.36;95060.88;5110616;28;20011;-64
2022/11/28 12:36:11;;;;;;;;;;;;;;;13.69;44.52;95056.34;5091643;28;20019;-63
2022/11/28 12:38:55;;;;;;;;;;;;;;;13.31;44.84;95055.63;5092204;28;20012;-64
2022/11/28 12:41:32;;;;;;;;;;;;;;;13.40;45.39;95048.34;5100302;28;20009;-65
2022/11/28 12:44:16;;;;;;;;;;;;;;;13.22;45.54;95047.69;5109821;28;20009;-64
2022/11/28 12:46:47;;;;;;;;;;;;;;;13.50;45.47;95053.34;5109832;28;20012;-65
2022/11/28 12:49:31;;;;;;;;;;;;;;;13.67;44.71;95057.81;5110240;28;20009;-65
2022/11/28 12:52:05;;;;;;;;;;;;;;;13.66;45.60;95061.56;5110128;28;20039;-64
2022/11/28 12:54:36;;;;;;;;;;;;;;;13.67;45.02;95060.47;5109152;28;20016;-63
2022/11/28 12:57:13;;;;;;;;;;;;;;;13.69;45.23;95060.91;5088682;28;20012;-64
2022/11/28 12:59:46;;;;;;;;;;;;;;;13.79;44.42;95055.97;5110218;28;20008;-64